Time;durP1;ratioP1;P1;durP2;ratioP2;P2;SDS_P1;SDS_P2;PMS_P1;PMS_P2;Temp;Humidity;BMP_temperature;BMP_pressure;BME280_temperature;BME280_humidity;BME280_pressure;Samples;Min_cycle;Max_cycle;Signal;HPM_P1;HPM_P2
2023/08/20 00:00:25;;;;;;;0.13;0.13;;;17.80;99.90;;;;;;5028588;28;20033;-68
2023/08/20 00:02:58;;;;;;;1.03;0.40;;;17.70;99.90;;;;;;5027585;28;20022;-68
2023/08/20 00:05:24;;;;;;;0.20;0.20;;;17.60;99.90;;;;;;5029577;28;20484;-69
2023/08/20 00:07:50;;;;;;;0.28;0.28;;;17.60;99.90;;;;;;5033942;28;20104;-69
2023/08/20 00:10:16;;;;;;;2.73;1.03;;;17.60;99.90;;;;;;5018734;28;20032;-69
2023/08/20 00:12:42;;;;;;;3.20;1.77;;;17.70;99.90;;;;;;5030734;28;20072;-69
2023/08/20 00:15:08;;;;;;;1.57;1.07;;;17.70;99.90;;;;;;5029662;28;20124;-69
2023/08/20 00:17:36;;;;;;;0.20;0.20;;;17.70;99.90;;;;;;5046473;28;20032;-69
2023/08/20 00:20:10;;;;;;;0.20;0.20;;;17.70;99.90;;;;;;5028497;28;20450;-69
2023/08/20 00:22:36;;;;;;;0.28;0.28;;;17.80;99.90;;;;;;5031096;28;20034;-69
2023/08/20 00:25:04;;;;;;;0.10;0.10;;;17.80;99.90;;;;;;5024732;28;20033;-69
2023/08/20 00:27:30;;;;;;;3.63;0.98;;;17.80;99.90;;;;;;5028387;28;20088;-69
2023/08/20 00:29:55;;;;;;;0.27;0.27;;;17.80;99.90;;;;;;5021888;28;20029;-69
2023/08/20 00:32:21;;;;;;;0.10;0.10;;;17.80;99.90;;;;;;5027891;28;20032;-77
2023/08/20 00:34:47;;;;;;;0.40;0.27;;;17.90;99.90;;;;;;5031061;28;20029;-69
2023/08/20 00:37:12;;;;;;;0.00;0.00;;;18.00;99.90;;;;;;5024523;28;20032;-69
2023/08/20 00:39:39;;;;;;;0.63;0.27;;;18.10;99.90;;;;;;5033386;28;20112;-69
2023/08/20 00:42:05;;;;;;;0.00;0.00;;;18.10;99.90;;;;;;5021410;28;20033;-68
2023/08/20 00:44:31;;;;;;;7.03;1.65;;;18.10;99.90;;;;;;5032223;28;20045;-69
2023/08/20 00:47:00;;;;;;;0.13;0.13;;;18.00;99.90;;;;;;5033185;28;20037;-68
2023/08/20 00:49:26;;;;;;;0.00;0.00;;;17.80;99.90;;;;;;5034859;28;20605;-78
2023/08/20 00:51:52;;;;;;;0.10;0.10;;;17.70;99.90;;;;;;5033700;28;20021;-69
2023/08/20 00:54:18;;;;;;;1.88;1.17;;;17.70;99.90;;;;;;5034371;28;20030;-69
2023/08/20 00:56:44;;;;;;;0.07;0.07;;;17.70;99.90;;;;;;5030450;28;20310;-69
2023/08/20 00:59:10;;;;;;;;;;;17.60;99.90;;;;;;5016638;28;20038;-69
2023/08/20 01:01:36;;;;;;;0.10;0.10;;;17.70;99.90;;;;;;5028807;28;19921;-69
2023/08/20 01:04:02;;;;;;;1.20;1.10;;;17.70;99.90;;;;;;5031883;28;20025;-69
2023/08/20 01:06:36;;;;;;;0.60;0.60;;;17.70;99.90;;;;;;5026204;28;20079;-70
2023/08/20 01:09:12;;;;;;;0.20;0.20;;;17.70;99.90;;;;;;5032110;28;20061;-69
2023/08/20 01:11:46;;;;;;;0.43;0.43;;;17.70;99.90;;;;;;5033573;28;20021;-69
2023/08/20 01:14:16;;;;;;;1.45;0.32;;;17.70;99.90;;;;;;5034003;28;20278;-69
2023/08/20 01:16:42;;;;;;;0.28;0.28;;;17.70;99.90;;;;;;5029468;28;20037;-69
2023/08/20 01:19:13;;;;;;;1.77;0.22;;;17.70;99.90;;;;;;5034210;28;20301;-70
2023/08/20 01:21:47;;;;;;;17.52;1.83;;;17.70;99.90;;;;;;5020426;28;20030;-69
2023/08/20 01:24:34;;;;;;;6.57;2.30;;;17.70;99.90;;;;;;5032106;28;20018;-69
2023/08/20 01:27:36;;;;;;;0.25;0.25;;;17.70;99.90;;;;;;5029369;28;20018;-69
2023/08/20 01:30:03;;;;;;;6.18;1.80;;;17.80;99.90;;;;;;5016475;28;20033;-70
2023/08/20 01:32:29;;;;;;;0.22;0.22;;;17.80;99.90;;;;;;5031238;28;20029;-69
2023/08/20 01:34:56;;;;;;;0.50;0.50;;;17.70;99.90;;;;;;5033312;28;20037;-69
2023/08/20 01:37:22;;;;;;;;;;;17.70;99.90;;;;;;5028126;28;20368;-76
2023/08/20 01:39:47;;;;;;;0.10;0.10;;;17.70;99.90;;;;;;5030867;28;19909;-69
2023/08/20 01:42:13;;;;;;;1.27;0.77;;;17.70;99.90;;;;;;5031614;28;20038;-69
2023/08/20 01:44:39;;;;;;;0.30;0.30;;;17.70;99.90;;;;;;5036629;28;20041;-69
2023/08/20 01:47:05;;;;;;;13.83;1.70;;;17.60;99.90;;;;;;5047027;28;20029;-69
2023/08/20 01:49:32;;;;;;;1.27;0.70;;;17.60;99.90;;;;;;5042080;28;20045;-68
2023/08/20 01:51:57;;;;;;;0.10;0.10;;;17.70;99.90;;;;;;5037388;28;20113;-69
2023/08/20 01:54:23;;;;;;;0.30;0.30;;;17.70;99.90;;;;;;5052911;28;20033;-69
2023/08/20 01:56:49;;;;;;;5.23;1.13;;;17.70;99.90;;;;;;5034381;28;20423;-69
2023/08/20 01:59:14;;;;;;;0.10;0.10;;;17.80;99.90;;;;;;5036053;28;20040;-69
2023/08/20 02:01:40;;;;;;;0.20;0.20;;;17.80;99.90;;;;;;5026606;28;20029;-70
2023/08/20 02:04:06;;;;;;;0.20;0.20;;;17.80;99.90;;;;;;5028030;28;20403;-77
2023/08/20 02:06:31;;;;;;;1.40;0.93;;;17.80;99.90;;;;;;5022761;28;20029;-69
2023/08/20 02:08:57;;;;;;;0.50;0.50;;;17.80;99.90;;;;;;5030011;28;20037;-68
2023/08/20 02:11:23;;;;;;;0.47;0.47;;;17.80;99.90;;;;;;5036779;28;20079;-69
2023/08/20 02:13:48;;;;;;;0.20;0.20;;;17.80;99.90;;;;;;5034752;28;20407;-69
2023/08/20 02:16:16;;;;;;;2.70;1.20;;;17.80;99.90;;;;;;5026916;28;20448;-68
2023/08/20 02:18:42;;;;;;;0.40;0.40;;;17.70;99.90;;;;;;5031276;28;20033;-69
2023/08/20 02:21:07;;;;;;;1.67;0.70;;;17.60;99.90;;;;;;5027870;28;20042;-70
2023/08/20 02:23:33;;;;;;;0.10;0.10;;;17.60;99.90;;;;;;5027786;28;20026;-69
2023/08/20 02:26:00;;;;;;;0.00;0.00;;;17.50;99.90;;;;;;5035939;28;20431;-69
2023/08/20 02:28:25;;;;;;;;;;;17.50;99.90;;;;;;5032071;28;20063;-68
2023/08/20 02:30:51;;;;;;;0.20;0.20;;;17.50;99.90;;;;;;5031197;28;20756;-69
2023/08/20 02:33:17;;;;;;;0.10;0.10;;;17.50;99.90;;;;;;5033200;28;20270;-69
2023/08/20 02:35:42;;;;;;;0.40;0.40;;;17.40;99.90;;;;;;5023457;28;20038;-68
2023/08/20 02:38:09;;;;;;;1.17;0.77;;;17.40;99.90;;;;;;5043255;28;20101;-74
2023/08/20 02:40:40;;;;;;;0.55;0.25;;;17.40;99.90;;;;;;5028925;28;20032;-69
2023/08/20 02:43:06;;;;;;;0.08;0.08;;;17.30;99.90;;;;;;5027618;28;20018;-68
2023/08/20 02:45:32;;;;;;;0.00;0.00;;;17.20;99.90;;;;;;5030129;28;20160;-69
2023/08/20 02:47:57;;;;;;;1.90;0.53;;;17.20;99.90;;;;;;5031534;28;20025;-69
2023/08/20 02:50:23;;;;;;;0.20;0.20;;;17.20;99.90;;;;;;5028582;28;20064;-69
2023/08/20 02:52:49;;;;;;;0.93;0.50;;;17.20;99.90;;;;;;5032199;28;20021;-69
2023/08/20 02:55:14;;;;;;;0.10;0.10;;;17.20;99.90;;;;;;5026903;28;20341;-77
2023/08/20 02:57:40;;;;;;;1.00;0.90;;;17.20;99.90;;;;;;5021796;28;20048;-69
2023/08/20 03:00:11;;;;;;;0.63;0.53;;;17.30;99.90;;;;;;5026620;28;20117;-69
2023/08/20 03:02:36;;;;;;;0.10;0.10;;;17.30;99.90;;;;;;5025836;28;20041;-78
2023/08/20 03:05:02;;;;;;;1.13;0.93;;;17.30;99.90;;;;;;5025185;28;20033;-68
2023/08/20 03:07:28;;;;;;;0.30;0.30;;;17.30;99.90;;;;;;5025104;28;20018;-68
2023/08/20 03:09:54;;;;;;;0.00;0.00;;;17.30;99.90;;;;;;5029995;28;20030;-69
2023/08/20 03:12:19;;;;;;;0.93;0.87;;;17.20;99.90;;;;;;5044944;28;20029;-68
2023/08/20 03:14:45;;;;;;;7.70;1.67;;;17.20;99.90;;;;;;5035441;28;20056;-68
2023/08/20 03:17:11;;;;;;;0.57;0.47;;;17.20;99.90;;;;;;5025551;28;20366;-69
2023/08/20 03:19:36;;;;;;;0.00;0.00;;;17.20;99.90;;;;;;5028449;28;20029;-78
2023/08/20 03:22:02;;;;;;;0.67;0.67;;;17.20;99.90;;;;;;5027747;28;20036;-69
2023/08/20 03:24:28;;;;;;;1.23;0.90;;;17.20;99.90;;;;;;5032018;28;20056;-69
2023/08/20 03:26:53;;;;;;;0.00;0.00;;;17.10;99.90;;;;;;5020534;28;20053;-69
2023/08/20 03:29:19;;;;;;;0.10;0.10;;;17.10;99.90;;;;;;5032399;28;20033;-70
2023/08/20 03:31:45;;;;;;;0.83;0.40;;;17.10;99.90;;;;;;5025640;28;20026;-69
2023/08/20 03:34:10;;;;;;;1.13;1.10;;;17.10;99.90;;;;;;5023884;28;20064;-69
2023/08/20 03:36:36;;;;;;;0.30;0.30;;;17.10;99.90;;;;;;5042981;28;20374;-69
2023/08/20 03:39:03;;;;;;;1.08;0.40;;;17.10;99.90;;;;;;5034716;28;20025;-69
2023/08/20 03:41:29;;;;;;;2.25;1.13;;;17.00;99.90;;;;;;5034799;28;20029;-70
2023/08/20 03:43:54;;;;;;;0.00;0.00;;;17.00;99.90;;;;;;5033798;28;20321;-69
2023/08/20 03:46:20;;;;;;;0.37;0.37;;;17.10;99.90;;;;;;5031301;28;20352;-70
2023/08/20 03:48:46;;;;;;;1.10;1.00;;;17.00;99.90;;;;;;5031335;28;20028;-69
2023/08/20 03:51:13;;;;;;;0.83;0.60;;;17.00;99.90;;;;;;5030680;28;20029;-69
2023/08/20 03:53:38;;;;;;;;;;;17.10;99.90;;;;;;5029824;28;20033;-69
2023/08/20 03:56:04;;;;;;;0.00;0.00;;;17.00;99.90;;;;;;5030273;28;19959;-69
2023/08/20 03:58:29;;;;;;;0.30;0.30;;;17.00;99.90;;;;;;5030704;28;20033;-69
2023/08/20 04:00:55;;;;;;;0.73;0.73;;;17.00;99.90;;;;;;5033869;28;20034;-69
2023/08/20 04:03:21;;;;;;;0.20;0.20;;;17.00;99.90;;;;;;5028007;28;20044;-69
2023/08/20 04:05:49;;;;;;;0.00;0.00;;;17.00;99.90;;;;;;5032514;28;20029;-69
2023/08/20 04:08:14;;;;;;;0.10;0.10;;;17.00;99.90;;;;;;5034902;28;20137;-69
2023/08/20 04:10:46;;;;;;;4.17;1.17;;;16.90;99.90;;;;;;5037478;28;20375;-69
2023/08/20 04:13:13;;;;;;;1.55;0.50;;;16.90;99.90;;;;;;5036886;28;20100;-69
2023/08/20 04:15:40;;;;;;;0.00;0.00;;;16.80;99.90;;;;;;5033296;28;20026;-69
2023/08/20 04:18:06;;;;;;;0.57;0.38;;;16.80;99.90;;;;;;5034109;28;20029;-69
2023/08/20 04:20:32;;;;;;;0.33;0.33;;;16.80;99.90;;;;;;5033400;28;20056;-76
2023/08/20 04:22:58;;;;;;;22.80;0.82;;;16.80;99.90;;;;;;5029433;28;20371;-69
2023/08/20 04:25:24;;;;;;;0.10;0.10;;;16.80;99.90;;;;;;5045333;28;20033;-69
2023/08/20 04:27:49;;;;;;;0.10;0.10;;;16.80;99.90;;;;;;5033124;28;20057;-69
2023/08/20 04:30:15;;;;;;;1.00;0.97;;;16.80;99.90;;;;;;5032957;28;20061;-77
2023/08/20 04:32:41;;;;;;;0.00;0.00;;;16.80;99.90;;;;;;5032439;28;20029;-69
2023/08/20 04:35:07;;;;;;;1.43;0.77;;;16.80;99.90;;;;;;5034539;28;20428;-69
2023/08/20 04:37:32;;;;;;;3.03;1.20;;;16.80;99.90;;;;;;5032535;28;20032;-69
2023/08/20 04:39:58;;;;;;;1.50;0.50;;;16.70;99.90;;;;;;5031225;28;20065;-69
2023/08/20 04:42:24;;;;;;;0.67;0.50;;;16.70;99.90;;;;;;5032399;28;20025;-69
2023/08/20 04:44:49;;;;;;;0.10;0.10;;;16.60;99.90;;;;;;5032663;28;20128;-69
2023/08/20 04:47:15;;;;;;;6.73;1.90;;;16.60;99.90;;;;;;5029485;28;20041;-77
2023/08/20 04:49:41;;;;;;;0.20;0.13;;;16.50;99.90;;;;;;5027283;28;20068;-69
2023/08/20 04:52:06;;;;;;;0.50;0.50;;;16.50;99.90;;;;;;5034176;28;20472;-69
2023/08/20 04:54:32;;;;;;;0.20;0.20;;;16.60;99.90;;;;;;5031362;28;20021;-69
2023/08/20 04:56:58;;;;;;;0.40;0.40;;;16.60;99.90;;;;;;5032551;28;20112;-70
2023/08/20 04:59:23;;;;;;;0.20;0.20;;;16.60;99.90;;;;;;5033080;28;20029;-69
2023/08/20 05:01:49;;;;;;;0.00;0.00;;;16.60;99.90;;;;;;5032955;28;20021;-69
2023/08/20 05:04:15;;;;;;;1.90;1.03;;;16.70;99.90;;;;;;5039243;28;20090;-69
2023/08/20 05:06:40;;;;;;;0.60;0.60;;;16.70;99.90;;;;;;5032491;28;20443;-70
2023/08/20 05:09:06;;;;;;;0.10;0.10;;;16.70;99.90;;;;;;5035484;28;20075;-69
2023/08/20 05:11:32;;;;;;;0.30;0.30;;;16.80;99.90;;;;;;5032411;28;20034;-69
2023/08/20 05:13:58;;;;;;;0.40;0.40;;;16.70;99.90;;;;;;5026981;28;20028;-69
2023/08/20 05:16:24;;;;;;;0.30;0.30;;;16.80;99.90;;;;;;5033172;28;20030;-69
2023/08/20 05:18:50;;;;;;;1.90;1.07;;;16.70;99.90;;;;;;5030924;28;20021;-69
2023/08/20 05:21:15;;;;;;;0.40;0.40;;;16.80;99.90;;;;;;5035937;28;20424;-69
2023/08/20 05:23:41;;;;;;;0.50;0.50;;;16.80;99.90;;;;;;5037969;28;20064;-69
2023/08/20 05:26:07;;;;;;;0.77;0.60;;;16.80;99.90;;;;;;5037554;28;20021;-69
2023/08/20 05:28:34;;;;;;;0.75;0.60;;;16.80;99.90;;;;;;5037267;28;20040;-69
2023/08/20 05:31:00;;;;;;;2.00;1.20;;;16.90;99.90;;;;;;5035657;28;20038;-75
2023/08/20 05:33:26;;;;;;;0.20;0.20;;;16.90;99.90;;;;;;5037823;28;20454;-69
2023/08/20 05:35:52;;;;;;;0.32;0.32;;;16.90;99.90;;;;;;5036945;28;20099;-69
2023/08/20 05:38:18;;;;;;;0.52;0.52;;;16.90;99.90;;;;;;5037348;28;20032;-69
2023/08/20 05:40:44;;;;;;;1.07;0.77;;;16.90;99.90;;;;;;5034110;28;20030;-78
2023/08/20 05:43:09;;;;;;;0.10;0.10;;;17.00;99.90;;;;;;5034596;28;20026;-69
2023/08/20 05:45:35;;;;;;;0.47;0.47;;;17.00;99.90;;;;;;5035905;28;20053;-69
2023/08/20 05:48:01;;;;;;;0.10;0.10;;;17.00;99.90;;;;;;5031167;28;20022;-69
2023/08/20 05:50:26;;;;;;;1.50;0.60;;;17.00;99.90;;;;;;5037399;28;20028;-69
2023/08/20 05:52:52;;;;;;;0.40;0.40;;;17.10;99.90;;;;;;5037345;28;20117;-69
2023/08/20 05:55:18;;;;;;;0.37;0.37;;;17.10;99.90;;;;;;5036688;28;20026;-69
2023/08/20 05:57:43;;;;;;;0.07;0.07;;;17.10;99.90;;;;;;5036319;28;20439;-69
2023/08/20 06:00:10;;;;;;;0.30;0.30;;;17.20;99.90;;;;;;5036646;28;20808;-70
2023/08/20 06:02:36;;;;;;;1.58;0.38;;;17.30;99.90;;;;;;5037551;28;20022;-69
2023/08/20 06:05:04;;;;;;;0.40;0.40;;;17.30;99.90;;;;;;5037140;28;20431;-69
2023/08/20 06:07:30;;;;;;;0.30;0.30;;;17.30;99.90;;;;;;5028196;28;20029;-69
2023/08/20 06:09:56;;;;;;;2.53;1.08;;;17.40;99.90;;;;;;5034102;28;20040;-77
2023/08/20 06:12:23;;;;;;;0.17;0.17;;;17.40;99.90;;;;;;5030033;28;20033;-70
2023/08/20 06:14:49;;;;;;;;;;;17.40;99.90;;;;;;5024255;28;20036;-70
2023/08/20 06:17:14;;;;;;;0.20;0.20;;;17.50;99.90;;;;;;5030252;28;19913;-70
2023/08/20 06:19:40;;;;;;;0.37;0.37;;;17.60;99.90;;;;;;5030644;28;20107;-69
2023/08/20 06:22:06;;;;;;;1.70;1.40;;;17.60;99.90;;;;;;5031165;28;20037;-70
2023/08/20 06:24:32;;;;;;;0.07;0.07;;;17.60;99.90;;;;;;5034451;28;20021;-70
2023/08/20 06:26:57;;;;;;;0.17;0.17;;;17.70;99.90;;;;;;5031555;28;20080;-70
2023/08/20 06:29:23;;;;;;;0.40;0.40;;;17.70;99.90;;;;;;5031581;28;20417;-70
2023/08/20 06:31:50;;;;;;;0.10;0.10;;;17.80;99.90;;;;;;5034550;28;20025;-70
2023/08/20 06:34:15;;;;;;;;;;;17.80;99.90;;;;;;5032006;28;20025;-70
2023/08/20 06:36:41;;;;;;;0.80;0.40;;;17.80;99.90;;;;;;5036961;28;20201;-77
2023/08/20 06:39:07;;;;;;;1.80;1.40;;;17.90;99.90;;;;;;5044371;28;20041;-70
2023/08/20 06:41:33;;;;;;;0.50;0.50;;;17.90;99.90;;;;;;5037567;28;20038;-70
2023/08/20 06:43:59;;;;;;;1.45;0.65;;;17.90;99.90;;;;;;5026327;28;20034;-70
2023/08/20 06:46:25;;;;;;;0.83;0.57;;;18.00;99.90;;;;;;5032723;28;20386;-70
2023/08/20 06:48:50;;;;;;;0.23;0.23;;;18.10;99.90;;;;;;5026089;28;20029;-70
2023/08/20 06:51:20;;;;;;;1.40;1.13;;;18.10;99.90;;;;;;5030912;28;20026;-70
2023/08/20 06:53:46;;;;;;;0.63;0.63;;;18.20;99.90;;;;;;5026785;28;20037;-70
2023/08/20 06:56:11;;;;;;;0.53;0.53;;;18.30;99.90;;;;;;5026304;28;20052;-70
2023/08/20 06:58:41;;;;;;;0.60;0.60;;;18.30;99.90;;;;;;5028581;28;20271;-70
2023/08/20 07:01:08;;;;;;;0.20;0.20;;;18.30;99.90;;;;;;5032370;28;20450;-70
2023/08/20 07:03:38;;;;;;;0.55;0.32;;;18.40;99.90;;;;;;5036613;28;20448;-70
2023/08/20 07:06:04;;;;;;;0.32;0.32;;;18.50;99.90;;;;;;5026360;28;20440;-79
2023/08/20 07:08:29;;;;;;;0.00;0.00;;;18.60;99.90;;;;;;5045612;28;20059;-70
2023/08/20 07:10:56;;;;;;;2.03;1.20;;;18.60;99.90;;;;;;5043068;28;20037;-70
2023/08/20 07:13:22;;;;;;;3.28;0.98;;;18.70;99.90;;;;;;5045836;28;20036;-70
2023/08/20 07:15:49;;;;;;;0.60;0.60;;;18.80;99.90;;;;;;5040380;28;20036;-71
2023/08/20 07:18:14;;;;;;;0.08;0.08;;;18.90;99.90;;;;;;5028086;28;20026;-70
2023/08/20 07:20:44;;;;;;;0.60;0.32;;;19.10;99.90;;;;;;5045166;28;20041;-70
2023/08/20 07:23:11;;;;;;;0.13;0.13;;;19.20;99.90;;;;;;5045959;28;20029;-71
2023/08/20 07:25:38;;;;;;;0.35;0.30;;;19.40;99.90;;;;;;5030680;28;20037;-70
2023/08/20 07:28:05;;;;;;;0.30;0.30;;;19.60;99.90;;;;;;5046861;28;20097;-70
2023/08/20 07:30:31;;;;;;;0.13;0.13;;;19.90;99.90;;;;;;5048770;28;20033;-70
2023/08/20 07:32:57;;;;;;;1.70;0.67;;;20.10;99.90;;;;;;5050144;28;20078;-70
2023/08/20 07:35:23;;;;;;;0.20;0.20;;;20.30;99.90;;;;;;5036912;28;20314;-78
2023/08/20 07:37:49;;;;;;;0.45;0.45;;;20.60;99.90;;;;;;5049762;28;20118;-70
2023/08/20 07:40:14;;;;;;;1.40;1.30;;;20.80;99.90;;;;;;5043238;28;20507;-70
2023/08/20 07:42:41;;;;;;;0.93;0.10;;;21.00;99.90;;;;;;5048813;28;20033;-78
2023/08/20 07:45:07;;;;;;;2.35;0.63;;;21.20;99.90;;;;;;5042055;28;20032;-70
2023/08/20 07:47:37;;;;;;;0.82;0.73;;;21.40;99.90;;;;;;5044747;28;20026;-73
2023/08/20 07:50:04;;;;;;;0.20;0.20;;;21.50;99.90;;;;;;5032581;28;20108;-71
2023/08/20 07:52:30;;;;;;;0.40;0.40;;;21.70;99.90;;;;;;5034592;28;20139;-70
2023/08/20 07:54:56;;;;;;;0.00;0.00;;;21.80;99.90;;;;;;5032510;28;20029;-70
2023/08/20 07:57:23;;;;;;;0.23;0.23;;;21.90;99.90;;;;;;5030709;28;20902;-71
2023/08/20 07:59:49;;;;;;;0.25;0.25;;;22.00;99.90;;;;;;5032040;28;20036;-70
2023/08/20 08:02:15;;;;;;;0.55;0.43;;;22.20;99.90;;;;;;5024186;28;20030;-71
2023/08/20 08:04:42;;;;;;;0.85;0.73;;;22.30;99.90;;;;;;5032900;28;20036;-74
2023/08/20 08:07:09;;;;;;;0.45;0.40;;;22.50;99.90;;;;;;5032717;28;20030;-71
2023/08/20 08:09:35;;;;;;;0.50;0.20;;;22.40;99.90;;;;;;5027918;28;20025;-71
2023/08/20 08:12:02;;;;;;;0.63;0.38;;;22.50;99.90;;;;;;5023050;28;20037;-71
2023/08/20 08:14:28;;;;;;;0.50;0.50;;;22.60;99.90;;;;;;5032921;28;20100;-70
2023/08/20 08:16:53;;;;;;;0.60;0.60;;;22.70;99.90;;;;;;5026147;28;20165;-70
2023/08/20 08:19:22;;;;;;;0.32;0.20;;;22.70;99.90;;;;;;5035621;28;20262;-70
2023/08/20 08:21:48;;;;;;;1.30;0.80;;;22.80;99.90;;;;;;5027302;28;20033;-73
2023/08/20 08:24:14;;;;;;;0.38;0.38;;;22.90;99.90;;;;;;5032825;28;20064;-70
2023/08/20 08:26:40;;;;;;;0.32;0.32;;;22.90;99.90;;;;;;5023600;28;20053;-70
2023/08/20 08:29:07;;;;;;;0.45;0.10;;;23.00;99.90;;;;;;5035647;28;20024;-71
2023/08/20 08:31:33;;;;;;;0.17;0.05;;;23.20;99.90;;;;;;5029837;28;20036;-70
2023/08/20 08:33:59;;;;;;;0.05;0.05;;;23.30;99.90;;;;;;5034433;28;20120;-70
2023/08/20 08:36:25;;;;;;;0.00;0.00;;;23.40;99.90;;;;;;5036470;28;20425;-70
2023/08/20 08:38:52;;;;;;;0.28;0.28;;;23.50;99.90;;;;;;5031584;28;20083;-71
2023/08/20 08:41:19;;;;;;;;;;;23.50;99.90;;;;;;5036250;28;20087;-70
2023/08/20 08:43:46;;;;;;;6.43;1.80;;;23.60;99.90;;;;;;5029289;28;20269;-70
2023/08/20 08:46:16;;;;;;;0.20;0.20;;;23.70;99.90;;;;;;5028210;28;20042;-71
2023/08/20 08:48:47;;;;;;;0.10;0.10;;;23.80;99.90;;;;;;5031025;28;20104;-71
2023/08/20 08:51:13;;;;;;;0.13;0.13;;;23.90;99.90;;;;;;5035240;28;20501;-70
2023/08/20 08:53:41;;;;;;;;;;;23.90;99.90;;;;;;5032306;28;20030;-70
2023/08/20 08:56:07;;;;;;;0.08;0.08;;;24.00;99.90;;;;;;5034968;28;19909;-71
2023/08/20 08:58:33;;;;;;;4.70;1.35;;;24.10;99.90;;;;;;5028206;28;20030;-79
2023/08/20 09:00:59;;;;;;;0.23;0.23;;;24.10;99.90;;;;;;5029812;28;20049;-70
2023/08/20 09:03:25;;;;;;;0.05;0.05;;;24.10;99.90;;;;;;5031077;28;20642;-78
2023/08/20 09:06:03;;;;;;;0.10;0.10;;;24.20;99.90;;;;;;5044935;28;20364;-71
2023/08/20 09:08:30;;;;;;;0.05;0.05;;;24.20;99.90;;;;;;5040839;28;20608;-71
2023/08/20 09:10:58;;;;;;;0.10;0.10;;;24.20;99.90;;;;;;5027226;28;20360;-79
2023/08/20 09:13:25;;;;;;;0.05;0.05;;;24.30;99.90;;;;;;5040926;28;20025;-70
2023/08/20 09:15:52;;;;;;;0.40;0.40;;;24.40;99.90;;;;;;5034208;28;20033;-71
2023/08/20 09:18:18;;;;;;;0.00;0.00;;;24.40;99.90;;;;;;5032704;28;20057;-71
2023/08/20 09:20:44;;;;;;;0.00;0.00;;;24.50;99.90;;;;;;5033191;28;20049;-81
2023/08/20 09:23:13;;;;;;;6.43;0.50;;;24.50;99.90;;;;;;5047949;28;20076;-71
2023/08/20 09:25:39;;;;;;;0.00;0.00;;;24.50;99.90;;;;;;5029863;28;20365;-70
2023/08/20 09:28:05;;;;;;;0.00;0.00;;;24.60;99.90;;;;;;5033242;28;20108;-71
2023/08/20 09:30:31;;;;;;;1.08;0.63;;;24.50;99.90;;;;;;5032628;28;20048;-71
2023/08/20 09:33:10;;;;;;;0.80;0.68;;;24.50;99.90;;;;;;5024345;28;20056;-69
2023/08/20 09:35:36;;;;;;;0.00;0.00;;;24.50;99.90;;;;;;5030479;28;20037;-71
2023/08/20 09:38:04;;;;;;;0.20;0.20;;;24.50;99.90;;;;;;5026963;28;20104;-75
2023/08/20 09:40:30;;;;;;;2.85;0.73;;;24.50;99.90;;;;;;5033868;28;20037;-69
2023/08/20 09:42:56;;;;;;;;;;;24.60;99.90;;;;;;5031707;28;20116;-78
2023/08/20 09:45:25;;;;;;;0.60;0.60;;;24.70;99.90;;;;;;5033723;28;19967;-71
2023/08/20 09:47:57;;;;;;;0.10;0.10;;;24.70;99.90;;;;;;5034025;28;20027;-71
2023/08/20 09:50:25;;;;;;;3.72;1.25;;;24.90;99.90;;;;;;5033485;28;20018;-79
2023/08/20 09:52:58;;;;;;;0.00;0.00;;;25.00;99.90;;;;;;5025421;28;20083;-79
2023/08/20 09:55:30;;;;;;;0.20;0.20;;;25.00;99.90;;;;;;5029491;28;20028;-71
2023/08/20 09:57:57;;;;;;;0.15;0.15;;;25.10;99.90;;;;;;5029505;28;20036;-71
2023/08/20 10:00:23;;;;;;;0.35;0.35;;;25.20;99.90;;;;;;5032978;28;20424;-76
2023/08/20 10:02:50;;;;;;;0.35;0.32;;;25.30;99.90;;;;;;5037516;28;20044;-78
2023/08/20 10:05:16;;;;;;;0.00;0.00;;;25.30;99.90;;;;;;5035853;28;20076;-71
2023/08/20 10:07:43;;;;;;;0.32;0.32;;;25.10;99.90;;;;;;5037569;28;20051;-71
2023/08/20 10:10:13;;;;;;;1.75;0.68;;;25.10;99.90;;;;;;5032011;28;20034;-72
2023/08/20 10:12:39;;;;;;;0.00;0.00;;;25.20;99.90;;;;;;5035291;28;20033;-77
2023/08/20 10:15:07;;;;;;;;;;;25.30;99.90;;;;;;5033570;28;20053;-71
2023/08/20 10:17:33;;;;;;;0.20;0.20;;;25.40;99.90;;;;;;5034898;28;20311;-71
2023/08/20 10:20:02;;;;;;;0.00;0.00;;;25.50;99.90;;;;;;5036220;28;20078;-72
2023/08/20 10:22:39;;;;;;;0.63;0.40;;;25.40;99.90;;;;;;5036133;28;20045;-74
2023/08/20 10:25:07;;;;;;;0.00;0.00;;;25.40;99.90;;;;;;5035165;28;20492;-71
2023/08/20 10:27:35;;;;;;;0.40;0.40;;;25.40;99.90;;;;;;5036094;28;20112;-71
2023/08/20 10:30:07;;;;;;;0.40;0.38;;;25.40;99.90;;;;;;5033510;28;20049;-71
2023/08/20 10:32:49;;;;;;;0.32;0.32;;;25.50;99.90;;;;;;5036808;28;20389;-71
2023/08/20 10:35:17;;;;;;;0.20;0.15;;;25.70;99.90;;;;;;5035770;28;20041;-74
2023/08/20 10:38:17;;;;;;;0.10;0.10;;;25.80;99.90;;;;;;5035860;28;20364;-70
2023/08/20 10:40:59;;;;;;;0.00;0.00;;;26.00;99.90;;;;;;5027891;28;20029;-72
2023/08/20 10:43:38;;;;;;;0.00;0.00;;;26.10;99.90;;;;;;5029452;28;20021;-78
2023/08/20 10:46:13;;;;;;;0.22;0.22;;;26.20;99.90;;;;;;5035401;28;20463;-78
2023/08/20 10:48:40;;;;;;;0.20;0.20;;;26.30;99.90;;;;;;5047551;28;20021;-77
2023/08/20 10:51:24;;;;;;;0.00;0.00;;;26.30;99.90;;;;;;5035580;28;20037;-72
2023/08/20 10:54:06;;;;;;;0.00;0.00;;;26.40;99.90;;;;;;5027154;28;20306;-79
2023/08/20 10:56:54;;;;;;;0.98;0.77;;;26.40;99.90;;;;;;5029571;28;20026;-80
2023/08/20 10:59:26;;;;;;;0.10;0.10;;;26.40;99.90;;;;;;5027431;28;20028;-79
2023/08/20 11:01:54;;;;;;;0.00;0.00;;;26.50;99.90;;;;;;5030329;28;20037;-78
2023/08/20 11:04:28;;;;;;;0.05;0.05;;;26.50;99.90;;;;;;5034974;28;20029;-77
2023/08/20 11:06:56;;;;;;;0.13;0.08;;;26.60;99.90;;;;;;5034565;28;20540;-79
2023/08/20 11:09:27;;;;;;;0.20;0.20;;;26.60;99.90;;;;;;5025999;28;20028;-79
2023/08/20 11:11:53;;;;;;;0.32;0.22;;;26.60;99.90;;;;;;5027595;28;20034;-80
2023/08/20 11:14:20;;;;;;;0.40;0.30;;;26.70;99.90;;;;;;5028429;28;20312;-71
2023/08/20 11:16:47;;;;;;;0.10;0.10;;;26.70;99.90;;;;;;5035877;28;20041;-80
2023/08/20 11:19:14;;;;;;;0.10;0.10;;;26.80;99.90;;;;;;5026607;28;20432;-71
2023/08/20 11:21:41;;;;;;;0.10;0.10;;;26.80;99.90;;;;;;5032958;28;20124;-70
2023/08/20 11:24:08;;;;;;;0.13;0.13;;;26.80;99.90;;;;;;5028808;28;20308;-70
2023/08/20 11:26:35;;;;;;;1.40;0.60;;;26.80;99.90;;;;;;5028357;28;20025;-69
2023/08/20 11:29:19;;;;;;;0.43;0.43;;;26.80;99.90;;;;;;5026847;28;20092;-71
2023/08/20 11:31:46;;;;;;;0.00;0.00;;;26.80;99.90;;;;;;5027045;28;20182;-77
2023/08/20 11:34:13;;;;;;;0.20;0.20;;;26.90;99.90;;;;;;5031914;28;20339;-71
2023/08/20 11:36:42;;;;;;;0.00;0.00;;;26.90;99.90;;;;;;5034128;28;20088;-71
2023/08/20 11:39:08;;;;;;;2.45;0.98;;;26.90;99.90;;;;;;5031283;28;20140;-69
2023/08/20 11:41:38;;;;;;;0.00;0.00;;;26.90;99.90;;;;;;5034345;28;20030;-70
2023/08/20 11:44:05;;;;;;;0.00;0.00;;;27.00;99.90;;;;;;5032554;28;20041;-71
2023/08/20 11:46:30;;;;;;;0.00;0.00;;;27.00;99.90;;;;;;5029355;28;20045;-71
2023/08/20 11:49:07;;;;;;;0.00;0.00;;;27.00;99.90;;;;;;5030707;28;20324;-79
2023/08/20 11:51:45;;;;;;;0.00;0.00;;;27.00;99.90;;;;;;5032105;28;20029;-71
2023/08/20 11:54:18;;;;;;;0.25;0.25;;;27.10;99.90;;;;;;5027775;28;20041;-70
2023/08/20 11:56:49;;;;;;;0.03;0.03;;;27.10;99.90;;;;;;5026089;28;20029;-70
2023/08/20 11:59:16;;;;;;;0.00;0.00;;;27.10;99.90;;;;;;5038136;28;20056;-79
2023/08/20 12:01:41;;;;;;;0.10;0.10;;;27.20;99.90;;;;;;5031778;28;20115;-78
2023/08/20 12:04:08;;;;;;;0.55;0.50;;;27.20;99.90;;;;;;5041906;28;20471;-71
2023/08/20 12:06:36;;;;;;;0.00;0.00;;;27.20;99.90;;;;;;5029531;28;20108;-78
2023/08/20 12:09:18;;;;;;;0.00;0.00;;;27.20;99.90;;;;;;5030075;28;20369;-79
2023/08/20 12:11:50;;;;;;;0.28;0.28;;;27.20;99.90;;;;;;5036999;28;20061;-78
2023/08/20 12:14:17;;;;;;;0.30;0.15;;;27.20;99.90;;;;;;5030666;28;20040;-77
2023/08/20 12:16:43;;;;;;;0.00;0.00;;;27.20;99.90;;;;;;5031772;28;20029;-79
2023/08/20 12:19:10;;;;;;;0.00;0.00;;;27.20;99.90;;;;;;5028376;28;20364;-78
2023/08/20 12:21:37;;;;;;;6.18;1.00;;;27.20;99.90;;;;;;5032866;28;20063;-79
2023/08/20 12:24:04;;;;;;;0.00;0.00;;;27.20;99.90;;;;;;5031373;28;20478;-76
2023/08/20 12:26:30;;;;;;;0.30;0.30;;;27.20;99.90;;;;;;5029703;28;20060;-79
2023/08/20 12:28:56;;;;;;;0.85;0.43;;;27.20;99.90;;;;;;5023548;28;20061;-70
2023/08/20 12:31:22;;;;;;;0.00;0.00;;;27.20;99.90;;;;;;5029268;28;20772;-78
2023/08/20 12:33:48;;;;;;;0.00;0.00;;;27.20;99.90;;;;;;5027386;28;20117;-79
2023/08/20 12:36:14;;;;;;;0.75;0.47;;;27.20;99.90;;;;;;5033174;28;20033;-78
2023/08/20 12:38:41;;;;;;;0.55;0.28;;;27.30;99.90;;;;;;5028271;28;20033;-78
2023/08/20 12:41:07;;;;;;;0.28;0.20;;;27.40;99.90;;;;;;5028348;28;20167;-78
2023/08/20 12:43:33;;;;;;;0.00;0.00;;;27.40;99.90;;;;;;5026473;28;20036;-83
2023/08/20 12:45:59;;;;;;;0.13;0.08;;;27.40;99.90;;;;;;5031710;28;20037;-77
2023/08/20 12:48:25;;;;;;;0.10;0.10;;;27.50;99.90;;;;;;5032629;28;20421;-71
2023/08/20 12:50:51;;;;;;;0.20;0.20;;;27.40;99.90;;;;;;5032815;28;20026;-77